sensor_id;sensor_type;location;lat;lon;timestamp;temperature;humidity
7572;DHT22;3827;49.928;8.548;2023-12-20T00:00:15;4.50;99.90
7572;DHT22;3827;49.928;8.548;2023-12-20T00:02:42;4.50;99.90
7572;DHT22;3827;49.928;8.548;2023-12-20T00:05:12;4.60;99.90
7572;DHT22;3827;49.928;8.548;2023-12-20T00:07:39;4.80;99.90
7572;DHT22;3827;49.928;8.548;2023-12-20T00:10:07;4.50;99.90
7572;DHT22;3827;49.928;8.548;2023-12-20T00:12:33;4.50;99.90
7572;DHT22;3827;49.928;8.548;2023-12-20T00:15:02;4.50;99.90
7572;DHT22;3827;49.928;8.548;2023-12-20T00:17:28;4.50;99.90
7572;DHT22;3827;49.928;8.548;2023-12-20T00:19:55;4.50;99.90
7572;DHT22;3827;49.928;8.548;2023-12-20T00:22:22;4.50;99.90
7572;DHT22;3827;49.928;8.548;2023-12-20T00:24:48;4.50;99.90
7572;DHT22;3827;49.928;8.548;2023-12-20T00:27:16;4.50;99.90
7572;DHT22;3827;49.928;8.548;2023-12-20T00:29:42;4.50;99.90
7572;DHT22;3827;49.928;8.548;2023-12-20T00:32:14;4.50;99.90
7572;DHT22;3827;49.928;8.548;2023-12-20T00:34:41;4.40;99.90
7572;DHT22;3827;49.928;8.548;2023-12-20T00:37:08;4.50;99.90
7572;DHT22;3827;49.928;8.548;2023-12-20T00:39:34;4.50;99.90
7572;DHT22;3827;49.928;8.548;2023-12-20T00:42:01;4.40;99.90
7572;DHT22;3827;49.928;8.548;2023-12-20T00:44:28;4.50;99.90
7572;DHT22;3827;49.928;8.548;2023-12-20T00:46:55;4.50;99.90
7572;DHT22;3827;49.928;8.548;2023-12-20T00:49:23;4.40;99.90
7572;DHT22;3827;49.928;8.548;2023-12-20T00:51:49;4.40;99.90
7572;DHT22;3827;49.928;8.548;2023-12-20T00:54:18;4.50;99.90
7572;DHT22;3827;49.928;8.548;2023-12-20T00:56:44;4.40;99.90
7572;DHT22;3827;49.928;8.548;2023-12-20T00:59:11;4.40;99.90
7572;DHT22;3827;49.928;8.548;2023-12-20T01:01:38;4.40;99.90
7572;DHT22;3827;49.928;8.548;2023-12-20T01:04:05;4.40;99.90
7572;DHT22;3827;49.928;8.548;2023-12-20T01:06:33;4.40;99.90
7572;DHT22;3827;49.928;8.548;2023-12-20T01:08:59;4.40;99.90
7572;DHT22;3827;49.928;8.548;2023-12-20T01:11:26;4.40;99.90
7572;DHT22;3827;49.928;8.548;2023-12-20T01:13:53;4.40;99.90
7572;DHT22;3827;49.928;8.548;2023-12-20T01:16:20;4.40;99.90
7572;DHT22;3827;49.928;8.548;2023-12-20T01:18:47;4.40;99.90
7572;DHT22;3827;49.928;8.548;2023-12-20T01:21:14;4.40;99.90
7572;DHT22;3827;49.928;8.548;2023-12-20T01:23:42;4.40;99.90
7572;DHT22;3827;49.928;8.548;2023-12-20T01:26:09;4.40;99.90
7572;DHT22;3827;49.928;8.548;2023-12-20T01:28:36;4.30;99.90
7572;DHT22;3827;49.928;8.548;2023-12-20T01:31:03;4.40;99.90
7572;DHT22;3827;49.928;8.548;2023-12-20T01:33:29;4.40;99.90
7572;DHT22;3827;49.928;8.548;2023-12-20T01:35:56;4.40;99.90
7572;DHT22;3827;49.928;8.548;2023-12-20T01:38:23;4.40;99.90
7572;DHT22;3827;49.928;8.548;2023-12-20T01:40:51;4.30;99.90
7572;DHT22;3827;49.928;8.548;2023-12-20T01:43:18;4.40;99.90
7572;DHT22;3827;49.928;8.548;2023-12-20T01:45:44;4.40;99.90
7572;DHT22;3827;49.928;8.548;2023-12-20T01:48:11;4.40;99.90
7572;DHT22;3827;49.928;8.548;2023-12-20T01:50:39;4.40;99.90
7572;DHT22;3827;49.928;8.548;2023-12-20T01:53:08;4.40;99.90
7572;DHT22;3827;49.928;8.548;2023-12-20T01:55:37;4.50;99.90
7572;DHT22;3827;49.928;8.548;2023-12-20T01:58:07;4.40;99.90
7572;DHT22;3827;49.928;8.548;2023-12-20T02:00:35;4.40;99.90
7572;DHT22;3827;49.928;8.548;2023-12-20T02:03:03;4.40;99.90
7572;DHT22;3827;49.928;8.548;2023-12-20T02:05:30;4.40;99.90
7572;DHT22;3827;49.928;8.548;2023-12-20T02:07:57;4.40;99.90
7572;DHT22;3827;49.928;8.548;2023-12-20T02:10:24;4.40;99.90
7572;DHT22;3827;49.928;8.548;2023-12-20T02:12:51;4.40;99.90
7572;DHT22;3827;49.928;8.548;2023-12-20T02:15:19;4.40;99.90
7572;DHT22;3827;49.928;8.548;2023-12-20T02:17:47;4.30;99.90
7572;DHT22;3827;49.928;8.548;2023-12-20T02:20:14;4.30;99.90
7572;DHT22;3827;49.928;8.548;2023-12-20T02:22:42;4.40;99.90
7572;DHT22;3827;49.928;8.548;2023-12-20T02:25:09;4.40;99.90
7572;DHT22;3827;49.928;8.548;2023-12-20T02:27:36;4.40;99.90
7572;DHT22;3827;49.928;8.548;2023-12-20T02:30:04;4.40;99.90
7572;DHT22;3827;49.928;8.548;2023-12-20T02:32:31;4.40;99.90
7572;DHT22;3827;49.928;8.548;2023-12-20T02:34:58;4.40;99.90
7572;DHT22;3827;49.928;8.548;2023-12-20T02:37:24;4.30;99.90
7572;DHT22;3827;49.928;8.548;2023-12-20T02:39:52;4.30;99.90
7572;DHT22;3827;49.928;8.548;2023-12-20T02:42:19;4.40;99.90
7572;DHT22;3827;49.928;8.548;2023-12-20T02:44:46;4.30;99.90
7572;DHT22;3827;49.928;8.548;2023-12-20T02:47:13;4.40;99.90
7572;DHT22;3827;49.928;8.548;2023-12-20T02:49:39;5.50;99.90
7572;DHT22;3827;49.928;8.548;2023-12-20T02:52:06;4.30;99.90
7572;DHT22;3827;49.928;8.548;2023-12-20T02:54:33;4.40;99.90
7572;DHT22;3827;49.928;8.548;2023-12-20T02:57:01;4.30;99.90
7572;DHT22;3827;49.928;8.548;2023-12-20T02:59:28;4.30;99.90
7572;DHT22;3827;49.928;8.548;2023-12-20T03:01:54;4.30;99.90
7572;DHT22;3827;49.928;8.548;2023-12-20T03:04:21;4.40;99.90
7572;DHT22;3827;49.928;8.548;2023-12-20T03:06:48;4.30;99.90
7572;DHT22;3827;49.928;8.548;2023-12-20T03:09:14;4.40;99.90
7572;DHT22;3827;49.928;8.548;2023-12-20T03:11:41;4.40;99.90
7572;DHT22;3827;49.928;8.548;2023-12-20T03:14:09;4.50;99.90
7572;DHT22;3827;49.928;8.548;2023-12-20T03:16:36;4.40;99.90
7572;DHT22;3827;49.928;8.548;2023-12-20T03:19:03;4.40;99.90
7572;DHT22;3827;49.928;8.548;2023-12-20T03:21:30;4.40;99.90
7572;DHT22;3827;49.928;8.548;2023-12-20T03:23:56;4.40;99.90
7572;DHT22;3827;49.928;8.548;2023-12-20T03:26:23;4.40;99.90
7572;DHT22;3827;49.928;8.548;2023-12-20T03:28:50;4.50;99.90
7572;DHT22;3827;49.928;8.548;2023-12-20T03:31:18;4.40;99.90
7572;DHT22;3827;49.928;8.548;2023-12-20T03:33:46;4.50;99.90
7572;DHT22;3827;49.928;8.548;2023-12-20T03:36:13;4.50;99.90
7572;DHT22;3827;49.928;8.548;2023-12-20T03:38:40;4.60;99.90
7572;DHT22;3827;49.928;8.548;2023-12-20T03:41:07;4.50;99.90
7572;DHT22;3827;49.928;8.548;2023-12-20T03:43:34;4.50;99.90
7572;DHT22;3827;49.928;8.548;2023-12-20T03:46:00;4.50;99.90
7572;DHT22;3827;49.928;8.548;2023-12-20T03:48:30;4.90;99.90
7572;DHT22;3827;49.928;8.548;2023-12-20T03:50:57;4.60;99.90
7572;DHT22;3827;49.928;8.548;2023-12-20T03:53:24;4.60;99.90
7572;DHT22;3827;49.928;8.548;2023-12-20T03:55:50;4.60;99.90
7572;DHT22;3827;49.928;8.548;2023-12-20T03:58:17;4.60;99.90
7572;DHT22;3827;49.928;8.548;2023-12-20T04:00:44;4.60;99.90
7572;DHT22;3827;49.928;8.548;2023-12-20T04:03:11;4.60;99.90
7572;DHT22;3827;49.928;8.548;2023-12-20T04:05:40;4.60;99.90
7572;DHT22;3827;49.928;8.548;2023-12-20T04:08:07;4.50;99.90
7572;DHT22;3827;49.928;8.548;2023-12-20T04:10:34;4.60;99.90
7572;DHT22;3827;49.928;8.548;2023-12-20T04:13:03;4.60;99.90
7572;DHT22;3827;49.928;8.548;2023-12-20T04:15:29;4.60;99.90
7572;DHT22;3827;49.928;8.548;2023-12-20T04:17:56;4.60;99.90
7572;DHT22;3827;49.928;8.548;2023-12-20T04:20:23;4.70;99.90
7572;DHT22;3827;49.928;8.548;2023-12-20T04:22:51;4.60;99.90
7572;DHT22;3827;49.928;8.548;2023-12-20T04:25:18;4.60;99.90
7572;DHT22;3827;49.928;8.548;2023-12-20T04:27:45;4.60;99.90
7572;DHT22;3827;49.928;8.548;2023-12-20T04:30:12;4.60;99.90
7572;DHT22;3827;49.928;8.548;2023-12-20T04:32:39;4.60;99.90
7572;DHT22;3827;49.928;8.548;2023-12-20T04:35:05;4.60;99.90
7572;DHT22;3827;49.928;8.548;2023-12-20T04:37:32;4.60;99.90
7572;DHT22;3827;49.928;8.548;2023-12-20T04:40:00;4.60;99.90
7572;DHT22;3827;49.928;8.548;2023-12-20T04:42:27;4.60;99.90
7572;DHT22;3827;49.928;8.548;2023-12-20T04:44:54;4.60;99.90
7572;DHT22;3827;49.928;8.548;2023-12-20T04:47:21;4.60;99.90
7572;DHT22;3827;49.928;8.548;2023-12-20T04:49:48;4.60;99.90
7572;DHT22;3827;49.928;8.548;2023-12-20T04:52:14;4.60;99.90
7572;DHT22;3827;49.928;8.548;2023-12-20T04:54:41;4.50;99.90
7572;DHT22;3827;49.928;8.548;2023-12-20T04:57:09;4.50;99.90
7572;DHT22;3827;49.928;8.548;2023-12-20T04:59:36;4.40;99.90
7572;DHT22;3827;49.928;8.548;2023-12-20T05:02:03;4.30;99.90
7572;DHT22;3827;49.928;8.548;2023-12-20T05:04:30;4.30;99.90
7572;DHT22;3827;49.928;8.548;2023-12-20T05:06:56;4.10;99.90
7572;DHT22;3827;49.928;8.548;2023-12-20T05:09:23;4.10;99.90
7572;DHT22;3827;49.928;8.548;2023-12-20T05:11:50;4.10;99.90
7572;DHT22;3827;49.928;8.548;2023-12-20T05:14:18;4.10;99.90
7572;DHT22;3827;49.928;8.548;2023-12-20T05:16:45;4.10;99.90
7572;DHT22;3827;49.928;8.548;2023-12-20T05:19:12;4.10;99.90
7572;DHT22;3827;49.928;8.548;2023-12-20T05:21:53;4.20;99.90
7572;DHT22;3827;49.928;8.548;2023-12-20T05:24:24;4.40;99.90
7572;DHT22;3827;49.928;8.548;2023-12-20T05:26:58;4.50;99.90
7572;DHT22;3827;49.928;8.548;2023-12-20T05:29:26;5.70;99.90
7572;DHT22;3827;49.928;8.548;2023-12-20T05:31:53;4.60;99.90
7572;DHT22;3827;49.928;8.548;2023-12-20T05:34:20;4.70;99.90
7572;DHT22;3827;49.928;8.548;2023-12-20T05:36:47;4.50;99.90
7572;DHT22;3827;49.928;8.548;2023-12-20T05:39:14;4.50;99.90
7572;DHT22;3827;49.928;8.548;2023-12-20T05:41:40;4.50;99.90
7572;DHT22;3827;49.928;8.548;2023-12-20T05:44:07;4.30;99.90
7572;DHT22;3827;49.928;8.548;2023-12-20T05:46:35;4.30;99.90
7572;DHT22;3827;49.928;8.548;2023-12-20T05:49:02;4.20;99.90
7572;DHT22;3827;49.928;8.548;2023-12-20T05:51:29;4.20;99.90
7572;DHT22;3827;49.928;8.548;2023-12-20T05:53:55;4.10;99.90
7572;DHT22;3827;49.928;8.548;2023-12-20T05:56:22;4.00;99.90
7572;DHT22;3827;49.928;8.548;2023-12-20T05:58:49;3.90;99.90
7572;DHT22;3827;49.928;8.548;2023-12-20T06:01:16;4.00;99.90
7572;DHT22;3827;49.928;8.548;2023-12-20T06:03:44;4.00;99.90
7572;DHT22;3827;49.928;8.548;2023-12-20T06:06:12;4.00;99.90
7572;DHT22;3827;49.928;8.548;2023-12-20T06:08:39;3.80;99.90
7572;DHT22;3827;49.928;8.548;2023-12-20T06:11:08;3.80;99.90
7572;DHT22;3827;49.928;8.548;2023-12-20T06:13:35;3.80;99.90
7572;DHT22;3827;49.928;8.548;2023-12-20T06:16:03;3.60;99.90
7572;DHT22;3827;49.928;8.548;2023-12-20T06:18:30;3.50;99.90
7572;DHT22;3827;49.928;8.548;2023-12-20T06:20:58;3.40;99.90
7572;DHT22;3827;49.928;8.548;2023-12-20T06:23:25;3.40;99.90
7572;DHT22;3827;49.928;8.548;2023-12-20T06:25:53;3.40;99.90
7572;DHT22;3827;49.928;8.548;2023-12-20T06:28:20;3.30;99.90
7572;DHT22;3827;49.928;8.548;2023-12-20T06:30:46;3.30;99.90
7572;DHT22;3827;49.928;8.548;2023-12-20T06:33:14;3.20;99.90
7572;DHT22;3827;49.928;8.548;2023-12-20T06:35:41;3.20;99.90
7572;DHT22;3827;49.928;8.548;2023-12-20T06:38:09;3.00;99.90
7572;DHT22;3827;49.928;8.548;2023-12-20T06:40:36;3.10;99.90
7572;DHT22;3827;49.928;8.548;2023-12-20T06:43:03;3.10;99.90
7572;DHT22;3827;49.928;8.548;2023-12-20T06:45:32;5.10;99.90
7572;DHT22;3827;49.928;8.548;2023-12-20T06:47:58;3.10;99.90
7572;DHT22;3827;49.928;8.548;2023-12-20T06:50:25;3.10;99.90
7572;DHT22;3827;49.928;8.548;2023-12-20T06:52:53;3.00;99.90
7572;DHT22;3827;49.928;8.548;2023-12-20T06:55:21;3.00;99.90
7572;DHT22;3827;49.928;8.548;2023-12-20T06:57:48;3.10;99.90
7572;DHT22;3827;49.928;8.548;2023-12-20T07:00:16;3.00;99.90
7572;DHT22;3827;49.928;8.548;2023-12-20T07:02:44;3.00;99.90
7572;DHT22;3827;49.928;8.548;2023-12-20T07:05:11;0.40;99.90
7572;DHT22;3827;49.928;8.548;2023-12-20T07:07:37;2.90;99.90
7572;DHT22;3827;49.928;8.548;2023-12-20T07:10:05;3.00;99.90
7572;DHT22;3827;49.928;8.548;2023-12-20T07:12:34;2.90;99.90
7572;DHT22;3827;49.928;8.548;2023-12-20T07:15:01;4.20;99.90
7572;DHT22;3827;49.928;8.548;2023-12-20T07:17:28;3.00;99.90
7572;DHT22;3827;49.928;8.548;2023-12-20T07:19:55;2.90;99.90
7572;DHT22;3827;49.928;8.548;2023-12-20T07:22:22;2.90;99.90
7572;DHT22;3827;49.928;8.548;2023-12-20T07:24:49;3.00;99.90
7572;DHT22;3827;49.928;8.548;2023-12-20T07:27:17;3.10;99.90
7572;DHT22;3827;49.928;8.548;2023-12-20T07:29:45;3.10;99.90
7572;DHT22;3827;49.928;8.548;2023-12-20T07:32:12;3.20;99.90
7572;DHT22;3827;49.928;8.548;2023-12-20T07:34:39;3.20;99.90
7572;DHT22;3827;49.928;8.548;2023-12-20T07:37:06;3.30;99.90
7572;DHT22;3827;49.928;8.548;2023-12-20T07:39:35;3.40;99.90
7572;DHT22;3827;49.928;8.548;2023-12-20T07:42:02;3.50;99.90
7572;DHT22;3827;49.928;8.548;2023-12-20T07:44:29;3.50;99.90
7572;DHT22;3827;49.928;8.548;2023-12-20T07:46:58;3.60;99.90
7572;DHT22;3827;49.928;8.548;2023-12-20T07:49:24;3.70;99.90
7572;DHT22;3827;49.928;8.548;2023-12-20T07:51:51;3.80;99.90
7572;DHT22;3827;49.928;8.548;2023-12-20T07:54:18;3.80;99.90
7572;DHT22;3827;49.928;8.548;2023-12-20T07:56:45;3.80;99.90
7572;DHT22;3827;49.928;8.548;2023-12-20T07:59:12;3.80;99.90
7572;DHT22;3827;49.928;8.548;2023-12-20T08:01:39;3.90;99.90
7572;DHT22;3827;49.928;8.548;2023-12-20T08:04:07;3.90;99.90
7572;DHT22;3827;49.928;8.548;2023-12-20T08:06:34;3.80;99.90
7572;DHT22;3827;49.928;8.548;2023-12-20T08:09:01;3.70;99.90
7572;DHT22;3827;49.928;8.548;2023-12-20T08:11:28;5.00;99.90
7572;DHT22;3827;49.928;8.548;2023-12-20T08:13:55;3.60;99.90
7572;DHT22;3827;49.928;8.548;2023-12-20T08:16:22;3.80;99.90
7572;DHT22;3827;49.928;8.548;2023-12-20T08:18:48;3.80;99.90
7572;DHT22;3827;49.928;8.548;2023-12-20T08:21:16;3.90;99.90
7572;DHT22;3827;49.928;8.548;2023-12-20T08:23:45;4.00;99.90
7572;DHT22;3827;49.928;8.548;2023-12-20T08:26:13;4.60;99.90
7572;DHT22;3827;49.928;8.548;2023-12-20T08:28:39;4.20;99.90
7572;DHT22;3827;49.928;8.548;2023-12-20T08:31:06;4.20;99.90
7572;DHT22;3827;49.928;8.548;2023-12-20T08:33:39;4.30;99.90
7572;DHT22;3827;49.928;8.548;2023-12-20T08:36:06;4.30;99.90
7572;DHT22;3827;49.928;8.548;2023-12-20T08:38:34;4.40;99.90
7572;DHT22;3827;49.928;8.548;2023-12-20T08:41:01;4.30;99.90
7572;DHT22;3827;49.928;8.548;2023-12-20T08:43:30;4.40;99.90
7572;DHT22;3827;49.928;8.548;2023-12-20T08:45:57;4.50;99.90
7572;DHT22;3827;49.928;8.548;2023-12-20T08:48:24;4.50;99.90
7572;DHT22;3827;49.928;8.548;2023-12-20T08:50:50;4.60;99.90
7572;DHT22;3827;49.928;8.548;2023-12-20T08:53:18;4.80;99.90
7572;DHT22;3827;49.928;8.548;2023-12-20T08:55:46;4.80;99.90
7572;DHT22;3827;49.928;8.548;2023-12-20T08:58:13;4.80;99.90
7572;DHT22;3827;49.928;8.548;2023-12-20T09:00:40;4.90;99.90
7572;DHT22;3827;49.928;8.548;2023-12-20T09:03:07;5.00;99.90
7572;DHT22;3827;49.928;8.548;2023-12-20T09:05:34;5.10;99.90
7572;DHT22;3827;49.928;8.548;2023-12-20T09:08:01;5.10;99.90
7572;DHT22;3827;49.928;8.548;2023-12-20T09:10:27;5.10;99.90
7572;DHT22;3827;49.928;8.548;2023-12-20T09:12:56;5.20;99.90
7572;DHT22;3827;49.928;8.548;2023-12-20T09:15:23;5.30;99.90
7572;DHT22;3827;49.928;8.548;2023-12-20T09:17:50;5.30;99.90
7572;DHT22;3827;49.928;8.548;2023-12-20T09:20:17;5.30;99.90
7572;DHT22;3827;49.928;8.548;2023-12-20T09:22:44;5.20;99.90
7572;DHT22;3827;49.928;8.548;2023-12-20T09:25:11;5.30;99.90
7572;DHT22;3827;49.928;8.548;2023-12-20T09:27:38;5.30;99.90
7572;DHT22;3827;49.928;8.548;2023-12-20T09:30:07;5.30;99.90
7572;DHT22;3827;49.928;8.548;2023-12-20T09:32:34;5.40;99.90
7572;DHT22;3827;49.928;8.548;2023-12-20T09:35:00;5.50;99.90
7572;DHT22;3827;49.928;8.548;2023-12-20T09:37:28;5.50;99.90
7572;DHT22;3827;49.928;8.548;2023-12-20T09:39:55;5.60;99.90
7572;DHT22;3827;49.928;8.548;2023-12-20T09:42:27;5.60;99.90
7572;DHT22;3827;49.928;8.548;2023-12-20T09:44:58;5.80;99.90
7572;DHT22;3827;49.928;8.548;2023-12-20T09:47:28;5.80;99.90
7572;DHT22;3827;49.928;8.548;2023-12-20T09:49:55;5.90;99.90
7572;DHT22;3827;49.928;8.548;2023-12-20T09:52:24;5.90;99.90
7572;DHT22;3827;49.928;8.548;2023-12-20T09:54:52;6.00;99.90
7572;DHT22;3827;49.928;8.548;2023-12-20T09:57:20;6.10;99.90
7572;DHT22;3827;49.928;8.548;2023-12-20T09:59:47;6.10;99.90
7572;DHT22;3827;49.928;8.548;2023-12-20T10:02:14;7.40;99.90
7572;DHT22;3827;49.928;8.548;2023-12-20T10:04:47;6.20;99.90
7572;DHT22;3827;49.928;8.548;2023-12-20T10:07:14;6.30;99.90
7572;DHT22;3827;49.928;8.548;2023-12-20T10:09:41;6.40;99.90
7572;DHT22;3827;49.928;8.548;2023-12-20T10:12:09;6.40;99.90
7572;DHT22;3827;49.928;8.548;2023-12-20T10:14:36;6.40;99.90
7572;DHT22;3827;49.928;8.548;2023-12-20T10:17:03;8.40;99.90
7572;DHT22;3827;49.928;8.548;2023-12-20T10:19:30;6.50;99.90
7572;DHT22;3827;49.928;8.548;2023-12-20T10:21:59;6.40;99.90
7572;DHT22;3827;49.928;8.548;2023-12-20T10:24:28;6.40;99.90
7572;DHT22;3827;49.928;8.548;2023-12-20T10:27:02;6.50;99.90
7572;DHT22;3827;49.928;8.548;2023-12-20T10:29:32;6.60;99.90
7572;DHT22;3827;49.928;8.548;2023-12-20T10:31:59;6.80;99.90
7572;DHT22;3827;49.928;8.548;2023-12-20T10:34:26;6.80;99.90
7572;DHT22;3827;49.928;8.548;2023-12-20T10:36:53;6.80;99.90
7572;DHT22;3827;49.928;8.548;2023-12-20T10:39:21;6.80;99.90
7572;DHT22;3827;49.928;8.548;2023-12-20T10:41:48;6.90;99.90
7572;DHT22;3827;49.928;8.548;2023-12-20T10:44:15;7.00;99.90
7572;DHT22;3827;49.928;8.548;2023-12-20T10:46:42;7.10;99.90
7572;DHT22;3827;49.928;8.548;2023-12-20T10:49:16;7.00;99.90
7572;DHT22;3827;49.928;8.548;2023-12-20T10:51:44;6.80;99.90
7572;DHT22;3827;49.928;8.548;2023-12-20T10:54:12;6.90;99.90
7572;DHT22;3827;49.928;8.548;2023-12-20T10:56:41;6.80;99.90
7572;DHT22;3827;49.928;8.548;2023-12-20T10:59:10;6.90;99.90
7572;DHT22;3827;49.928;8.548;2023-12-20T11:01:38;6.90;99.90
7572;DHT22;3827;49.928;8.548;2023-12-20T11:04:09;7.00;99.90
7572;DHT22;3827;49.928;8.548;2023-12-20T11:06:45;7.10;99.90
7572;DHT22;3827;49.928;8.548;2023-12-20T11:09:20;7.10;99.90
7572;DHT22;3827;49.928;8.548;2023-12-20T11:12:04;7.20;99.90
7572;DHT22;3827;49.928;8.548;2023-12-20T11:14:40;7.00;99.90
7572;DHT22;3827;49.928;8.548;2023-12-20T11:17:08;6.90;99.90
7572;DHT22;3827;49.928;8.548;2023-12-20T11:22:30;7.10;99.90
7572;DHT22;3827;49.928;8.548;2023-12-20T11:24:59;7.10;99.90
7572;DHT22;3827;49.928;8.548;2023-12-20T11:27:30;7.10;99.90
7572;DHT22;3827;49.928;8.548;2023-12-20T11:29:58;6.90;99.90
7572;DHT22;3827;49.928;8.548;2023-12-20T11:32:29;7.00;99.90
7572;DHT22;3827;49.928;8.548;2023-12-20T11:34:57;7.10;99.90
7572;DHT22;3827;49.928;8.548;2023-12-20T11:37:29;7.10;99.90
7572;DHT22;3827;49.928;8.548;2023-12-20T11:40:00;7.10;99.90
7572;DHT22;3827;49.928;8.548;2023-12-20T11:42:37;7.00;99.90
7572;DHT22;3827;49.928;8.548;2023-12-20T11:45:05;7.10;99.90
7572;DHT22;3827;49.928;8.548;2023-12-20T11:47:32;7.10;99.90
7572;DHT22;3827;49.928;8.548;2023-12-20T11:49:58;7.30;99.90
7572;DHT22;3827;49.928;8.548;2023-12-20T11:52:29;7.50;99.90
7572;DHT22;3827;49.928;8.548;2023-12-20T11:54:56;7.50;99.90
7572;DHT22;3827;49.928;8.548;2023-12-20T11:57:23;8.00;99.90
7572;DHT22;3827;49.928;8.548;2023-12-20T11:59:51;7.40;99.90
7572;DHT22;3827;49.928;8.548;2023-12-20T12:02:18;7.30;99.90
7572;DHT22;3827;49.928;8.548;2023-12-20T12:04:45;7.20;99.90
7572;DHT22;3827;49.928;8.548;2023-12-20T12:07:11;7.20;99.90
7572;DHT22;3827;49.928;8.548;2023-12-20T12:09:38;7.20;99.90
7572;DHT22;3827;49.928;8.548;2023-12-20T12:12:06;8.40;99.90
7572;DHT22;3827;49.928;8.548;2023-12-20T12:14:33;7.00;99.90
7572;DHT22;3827;49.928;8.548;2023-12-20T12:17:02;7.00;99.90
7572;DHT22;3827;49.928;8.548;2023-12-20T12:19:29;7.00;99.90
7572;DHT22;3827;49.928;8.548;2023-12-20T12:22:07;7.00;99.90
7572;DHT22;3827;49.928;8.548;2023-12-20T12:24:36;7.10;99.90
7572;DHT22;3827;49.928;8.548;2023-12-20T12:27:05;7.20;99.90
7572;DHT22;3827;49.928;8.548;2023-12-20T12:29:32;7.20;99.90
7572;DHT22;3827;49.928;8.548;2023-12-20T12:31:59;8.30;99.90
7572;DHT22;3827;49.928;8.548;2023-12-20T12:34:28;7.30;99.90
7572;DHT22;3827;49.928;8.548;2023-12-20T12:36:56;7.40;99.90
7572;DHT22;3827;49.928;8.548;2023-12-20T12:39:23;7.40;99.90
7572;DHT22;3827;49.928;8.548;2023-12-20T12:41:50;7.60;99.90
7572;DHT22;3827;49.928;8.548;2023-12-20T12:44:17;7.70;99.90
7572;DHT22;3827;49.928;8.548;2023-12-20T12:46:44;7.60;99.90
7572;DHT22;3827;49.928;8.548;2023-12-20T12:49:11;7.70;99.90
7572;DHT22;3827;49.928;8.548;2023-12-20T12:51:39;9.30;99.90
7572;DHT22;3827;49.928;8.548;2023-12-20T12:54:06;9.30;99.90
7572;DHT22;3827;49.928;8.548;2023-12-20T12:56:34;7.40;99.90
7572;DHT22;3827;49.928;8.548;2023-12-20T12:59:01;7.30;99.90
7572;DHT22;3827;49.928;8.548;2023-12-20T13:01:28;7.70;99.90
7572;DHT22;3827;49.928;8.548;2023-12-20T13:03:55;7.10;99.90
7572;DHT22;3827;49.928;8.548;2023-12-20T13:06:21;7.10;99.90
7572;DHT22;3827;49.928;8.548;2023-12-20T13:08:49;7.00;99.90
7572;DHT22;3827;49.928;8.548;2023-12-20T13:11:16;6.90;99.90
7572;DHT22;3827;49.928;8.548;2023-12-20T13:13:43;6.80;99.90
7572;DHT22;3827;49.928;8.548;2023-12-20T13:16:10;6.90;99.90
7572;DHT22;3827;49.928;8.548;2023-12-20T13:18:37;7.00;99.90
7572;DHT22;3827;49.928;8.548;2023-12-20T13:21:07;7.30;99.90
7572;DHT22;3827;49.928;8.548;2023-12-20T13:23:34;7.60;99.90
7572;DHT22;3827;49.928;8.548;2023-12-20T13:26:03;8.00;99.90
7572;DHT22;3827;49.928;8.548;2023-12-20T13:28:29;8.30;99.90
7572;DHT22;3827;49.928;8.548;2023-12-20T13:30:56;8.10;99.90
7572;DHT22;3827;49.928;8.548;2023-12-20T13:33:23;8.10;99.90
7572;DHT22;3827;49.928;8.548;2023-12-20T13:35:50;9.80;99.90
7572;DHT22;3827;49.928;8.548;2023-12-20T13:38:17;8.10;99.90
7572;DHT22;3827;49.928;8.548;2023-12-20T13:40:44;8.30;99.90
7572;DHT22;3827;49.928;8.548;2023-12-20T13:43:12;8.10;99.90
7572;DHT22;3827;49.928;8.548;2023-12-20T13:45:39;7.90;99.90
7572;DHT22;3827;49.928;8.548;2023-12-20T13:48:06;7.80;99.90
7572;DHT22;3827;49.928;8.548;2023-12-20T13:50:33;7.80;99.90
7572;DHT22;3827;49.928;8.548;2023-12-20T13:53:00;7.90;99.90
7572;DHT22;3827;49.928;8.548;2023-12-20T13:55:29;8.70;99.90
7572;DHT22;3827;49.928;8.548;2023-12-20T13:57:56;7.80;99.90
7572;DHT22;3827;49.928;8.548;2023-12-20T14:00:24;7.70;99.90
7572;DHT22;3827;49.928;8.548;2023-12-20T14:02:51;8.70;99.90
7572;DHT22;3827;49.928;8.548;2023-12-20T14:05:18;9.30;99.90
7572;DHT22;3827;49.928;8.548;2023-12-20T14:07:45;7.70;99.90
7572;DHT22;3827;49.928;8.548;2023-12-20T14:10:12;7.60;99.90
7572;DHT22;3827;49.928;8.548;2023-12-20T14:12:39;8.70;99.90
7572;DHT22;3827;49.928;8.548;2023-12-20T14:15:07;7.50;99.90
7572;DHT22;3827;49.928;8.548;2023-12-20T14:17:37;7.50;99.90
7572;DHT22;3827;49.928;8.548;2023-12-20T14:20:05;7.40;99.90
7572;DHT22;3827;49.928;8.548;2023-12-20T14:22:33;7.40;99.90
7572;DHT22;3827;49.928;8.548;2023-12-20T14:25:00;7.40;99.90
7572;DHT22;3827;49.928;8.548;2023-12-20T14:27:27;7.40;99.90
7572;DHT22;3827;49.928;8.548;2023-12-20T14:29:54;7.40;99.90
7572;DHT22;3827;49.928;8.548;2023-12-20T14:32:21;7.20;99.90
7572;DHT22;3827;49.928;8.548;2023-12-20T14:34:49;7.30;99.90
7572;DHT22;3827;49.928;8.548;2023-12-20T14:37:16;7.20;99.90
7572;DHT22;3827;49.928;8.548;2023-12-20T14:39:43;7.20;99.90
7572;DHT22;3827;49.928;8.548;2023-12-20T14:42:10;7.10;99.90
7572;DHT22;3827;49.928;8.548;2023-12-20T14:44:39;7.20;99.90
7572;DHT22;3827;49.928;8.548;2023-12-20T14:47:06;7.30;99.90
7572;DHT22;3827;49.928;8.548;2023-12-20T14:49:33;7.30;99.90
7572;DHT22;3827;49.928;8.548;2023-12-20T14:52:02;8.20;99.90
7572;DHT22;3827;49.928;8.548;2023-12-20T14:54:28;7.20;99.90
7572;DHT22;3827;49.928;8.548;2023-12-20T14:56:55;6.20;99.90
7572;DHT22;3827;49.928;8.548;2023-12-20T14:59:22;7.10;99.90
7572;DHT22;3827;49.928;8.548;2023-12-20T15:01:49;7.10;99.90
7572;DHT22;3827;49.928;8.548;2023-12-20T15:04:16;7.00;99.90
7572;DHT22;3827;49.928;8.548;2023-12-20T15:06:42;7.00;99.90
7572;DHT22;3827;49.928;8.548;2023-12-20T15:09:11;7.00;99.90
7572;DHT22;3827;49.928;8.548;2023-12-20T15:11:38;6.90;99.90
7572;DHT22;3827;49.928;8.548;2023-12-20T15:14:05;6.90;99.90
7572;DHT22;3827;49.928;8.548;2023-12-20T15:16:33;6.90;99.90
7572;DHT22;3827;49.928;8.548;2023-12-20T15:19:00;6.80;99.90
7572;DHT22;3827;49.928;8.548;2023-12-20T15:21:27;6.90;99.90
7572;DHT22;3827;49.928;8.548;2023-12-20T15:23:57;6.80;99.90
7572;DHT22;3827;49.928;8.548;2023-12-20T15:26:32;6.80;99.90
7572;DHT22;3827;49.928;8.548;2023-12-20T15:28:59;6.80;99.90
7572;DHT22;3827;49.928;8.548;2023-12-20T15:31:27;6.70;99.90
7572;DHT22;3827;49.928;8.548;2023-12-20T15:33:53;6.70;99.90
7572;DHT22;3827;49.928;8.548;2023-12-20T15:36:20;6.70;99.90
7572;DHT22;3827;49.928;8.548;2023-12-20T15:38:47;6.70;99.90
7572;DHT22;3827;49.928;8.548;2023-12-20T15:41:17;6.70;99.90
7572;DHT22;3827;49.928;8.548;2023-12-20T15:43:45;6.70;99.90
7572;DHT22;3827;49.928;8.548;2023-12-20T15:46:13;6.70;99.90
7572;DHT22;3827;49.928;8.548;2023-12-20T15:48:40;6.70;99.90
7572;DHT22;3827;49.928;8.548;2023-12-20T15:51:07;6.60;99.90
7572;DHT22;3827;49.928;8.548;2023-12-20T15:53:34;6.60;99.90
7572;DHT22;3827;49.928;8.548;2023-12-20T15:56:02;6.50;99.90
7572;DHT22;3827;49.928;8.548;2023-12-20T15:58:29;6.60;99.90
7572;DHT22;3827;49.928;8.548;2023-12-20T16:00:57;7.00;99.90
7572;DHT22;3827;49.928;8.548;2023-12-20T16:03:25;6.60;99.90
7572;DHT22;3827;49.928;8.548;2023-12-20T16:05:52;6.60;99.90
7572;DHT22;3827;49.928;8.548;2023-12-20T16:08:19;6.60;99.90
7572;DHT22;3827;49.928;8.548;2023-12-20T16:10:46;7.50;99.90
7572;DHT22;3827;49.928;8.548;2023-12-20T16:13:13;6.60;99.90
7572;DHT22;3827;49.928;8.548;2023-12-20T16:15:40;6.60;99.90
7572;DHT22;3827;49.928;8.548;2023-12-20T16:18:09;6.60;99.90
7572;DHT22;3827;49.928;8.548;2023-12-20T16:20:36;6.70;99.90